Time;durP1;ratioP1;P1;durP2;ratioP2;P2;SDS_P1;SDS_P2;PMS_P1;PMS_P2;Temp;Humidity;BMP_temperature;BMP_pressure;BME280_temperature;BME280_humidity;BME280_pressure;Samples;Min_cycle;Max_cycle;Signal;HPM_P1;HPM_P2
2021/06/27 00:00:20;;;;;;;3.17;2.88;;;14.60;99.90;;;;;;5050251;28;20250;-58
2021/06/27 00:02:46;;;;;;;4.00;2.72;;;14.70;99.90;;;;;;5049394;28;20536;-58
2021/06/27 00:05:15;;;;;;;3.60;2.28;;;14.70;99.90;;;;;;5050185;28;20036;-55
2021/06/27 00:07:40;;;;;;;4.57;2.70;;;14.70;99.90;;;;;;5049371;28;20021;-58
2021/06/27 00:10:09;;;;;;;6.80;4.00;;;14.80;99.90;;;;;;5050658;28;20083;-58
2021/06/27 00:12:36;;;;;;;3.20;2.90;;;14.80;99.90;;;;;;5050643;28;20051;-58
2021/06/27 00:15:05;;;;;;;2.83;2.63;;;14.80;99.90;;;;;;5050288;28;20043;-58
2021/06/27 00:17:30;;;;;;;3.33;2.70;;;14.90;99.90;;;;;;5048992;28;20067;-57
2021/06/27 00:19:55;;;;;;;3.38;3.08;;;14.80;99.90;;;;;;5050269;28;20419;-58
2021/06/27 00:22:21;;;;;;;3.08;2.75;;;14.90;99.90;;;;;;5050255;28;20025;-58
2021/06/27 00:24:46;;;;;;;3.20;2.70;;;14.80;99.90;;;;;;5050452;28;20063;-57
2021/06/27 00:27:12;;;;;;;4.90;2.60;;;14.90;99.90;;;;;;5050296;28;20520;-57
2021/06/27 00:29:38;;;;;;;3.58;2.70;;;14.90;99.90;;;;;;5050259;28;20021;-58
2021/06/27 00:32:04;;;;;;;2.70;2.50;;;14.90;99.90;;;;;;5050265;28;20357;-58
2021/06/27 00:34:29;;;;;;;3.45;2.83;;;14.90;99.90;;;;;;5048836;28;20078;-58
2021/06/27 00:36:54;;;;;;;2.30;2.10;;;15.00;99.90;;;;;;5044382;28;20025;-58
2021/06/27 00:39:20;;;;;;;2.60;2.13;;;14.90;99.90;;;;;;5054119;28;20264;-57
2021/06/27 00:41:45;;;;;;;3.63;1.98;;;14.90;99.90;;;;;;5040990;28;20038;-59
2021/06/27 00:44:11;;;;;;;3.55;2.60;;;14.90;99.90;;;;;;5053821;28;20029;-58
2021/06/27 00:46:36;;;;;;;2.33;2.10;;;14.80;99.90;;;;;;5053927;28;20025;-59
2021/06/27 00:49:02;;;;;;;2.50;2.30;;;14.80;99.90;;;;;;5052736;28;20549;-57
2021/06/27 00:51:27;;;;;;;2.47;1.90;;;14.80;99.90;;;;;;5053800;28;20032;-58
2021/06/27 00:53:53;;;;;;;3.08;2.28;;;14.70;99.90;;;;;;5054173;28;20051;-57
2021/06/27 00:56:19;;;;;;;5.15;2.80;;;14.70;99.90;;;;;;5053661;28;20491;-58
2021/06/27 00:58:45;;;;;;;3.05;2.53;;;14.60;99.90;;;;;;5053822;28;20112;-58
2021/06/27 01:01:11;;;;;;;2.42;2.22;;;14.60;99.90;;;;;;5052380;28;20496;-58
2021/06/27 01:03:37;;;;;;;5.13;2.08;;;14.60;99.90;;;;;;5052299;28;20029;-58
2021/06/27 01:06:03;;;;;;;3.08;1.83;;;14.50;99.90;;;;;;5053615;28;20025;-58
2021/06/27 01:08:28;;;;;;;2.83;2.38;;;14.50;99.90;;;;;;5053879;28;20074;-58
2021/06/27 01:10:55;;;;;;;2.40;2.20;;;14.40;99.90;;;;;;5053726;28;20389;-55
2021/06/27 01:13:22;;;;;;;4.40;3.28;;;14.30;99.90;;;;;;5053442;28;20472;-59
2021/06/27 01:15:49;;;;;;;2.45;1.98;;;14.30;99.90;;;;;;5053572;28;20032;-59
2021/06/27 01:18:14;;;;;;;2.30;2.10;;;14.20;99.90;;;;;;5052200;28;20037;-59
2021/06/27 01:20:41;;;;;;;3.75;2.70;;;14.10;99.90;;;;;;5053185;28;20058;-55
2021/06/27 01:23:12;;;;;;;3.53;2.13;;;14.00;99.90;;;;;;5053456;28;20492;-58
2021/06/27 01:25:40;;;;;;;2.65;2.13;;;13.90;99.90;;;;;;5053339;28;20036;-59
2021/06/27 01:28:07;;;;;;;3.05;2.65;;;13.90;99.90;;;;;;5053541;28;20021;-58
2021/06/27 01:30:33;;;;;;;2.63;2.40;;;13.80;99.90;;;;;;5051729;28;20025;-58
2021/06/27 01:33:02;;;;;;;2.60;2.13;;;13.70;99.90;;;;;;5051980;28;20075;-58
2021/06/27 01:35:28;;;;;;;3.60;2.75;;;13.60;99.90;;;;;;5046466;28;20036;-58
2021/06/27 01:37:56;;;;;;;4.50;2.92;;;13.50;99.90;;;;;;5053395;28;20116;-58
2021/06/27 01:40:24;;;;;;;2.63;2.28;;;13.40;99.90;;;;;;5051158;28;20473;-58
2021/06/27 01:42:50;;;;;;;2.67;2.40;;;13.40;99.90;;;;;;5034235;28;20483;-58
2021/06/27 01:45:22;;;;;;;5.88;3.00;;;13.30;99.90;;;;;;5034734;28;20032;-59
2021/06/27 01:48:02;;;;;;;4.18;3.15;;;13.20;99.90;;;;;;5033427;28;20036;-58
2021/06/27 01:50:29;;;;;;;3.90;3.17;;;13.10;99.90;;;;;;5034021;28;20025;-58
2021/06/27 01:52:56;;;;;;;4.30;2.50;;;13.10;99.90;;;;;;5034755;28;20021;-58
2021/06/27 01:55:23;;;;;;;2.50;1.90;;;13.00;99.90;;;;;;5034645;28;20512;-58
2021/06/27 01:57:49;;;;;;;4.05;2.80;;;12.90;99.90;;;;;;5034549;28;20037;-58
2021/06/27 02:00:15;;;;;;;2.85;2.53;;;12.90;99.90;;;;;;5034479;28;20121;-58
2021/06/27 02:02:41;;;;;;;2.97;2.22;;;12.80;99.90;;;;;;5033285;28;20033;-56
2021/06/27 02:05:07;;;;;;;3.15;2.60;;;12.80;99.90;;;;;;5034822;28;20018;-59
2021/06/27 02:07:35;;;;;;;3.38;2.70;;;12.80;99.90;;;;;;5034427;28;20029;-58
2021/06/27 02:10:02;;;;;;;3.22;2.17;;;12.70;99.90;;;;;;5034544;28;20029;-55
2021/06/27 02:12:30;;;;;;;2.90;2.60;;;12.60;99.90;;;;;;5034190;28;20480;-57
2021/06/27 02:14:56;;;;;;;3.10;2.63;;;12.60;99.90;;;;;;5034500;28;20079;-59
2021/06/27 02:17:22;;;;;;;6.43;3.70;;;12.50;99.90;;;;;;5032849;28;20493;-58
2021/06/27 02:19:53;;;;;;;3.72;3.00;;;12.50;99.90;;;;;;5034262;28;20519;-58
2021/06/27 02:22:19;;;;;;;4.25;3.50;;;12.40;99.90;;;;;;5034028;28;20022;-55
2021/06/27 02:24:45;;;;;;;6.18;3.05;;;12.40;99.90;;;;;;5034046;28;20053;-56
2021/06/27 02:27:10;;;;;;;3.42;2.70;;;12.40;99.90;;;;;;5034294;28;20025;-58
2021/06/27 02:29:36;;;;;;;5.18;3.08;;;12.30;99.90;;;;;;5034074;28;20100;-58
2021/06/27 02:32:04;;;;;;;5.03;3.22;;;12.30;99.90;;;;;;5033982;28;20059;-58
2021/06/27 02:34:30;;;;;;;5.22;3.83;;;12.20;99.90;;;;;;5032891;28;20017;-58
2021/06/27 02:36:55;;;;;;;4.28;3.00;;;12.20;99.90;;;;;;5033919;28;20052;-57
2021/06/27 02:39:21;;;;;;;3.50;2.83;;;12.20;99.90;;;;;;5033864;28;20129;-58
2021/06/27 02:41:46;;;;;;;6.47;3.80;;;12.10;99.90;;;;;;5033613;28;20088;-59
2021/06/27 02:44:12;;;;;;;3.80;2.95;;;12.10;99.90;;;;;;5032598;28;20021;-59
2021/06/27 02:46:38;;;;;;;5.55;3.70;;;12.10;99.90;;;;;;5033615;28;20040;-58
2021/06/27 02:49:03;;;;;;;3.50;2.88;;;12.00;99.90;;;;;;5032615;28;20025;-58
2021/06/27 02:51:29;;;;;;;4.97;3.72;;;12.00;99.90;;;;;;5033394;28;20029;-58
2021/06/27 02:53:55;;;;;;;5.05;3.38;;;12.00;99.90;;;;;;5033642;28;20080;-59
2021/06/27 02:56:20;;;;;;;3.60;3.10;;;12.00;99.90;;;;;;5033472;28;20032;-57
2021/06/27 02:58:48;;;;;;;6.90;4.05;;;12.00;99.90;;;;;;5033376;28;20079;-58
2021/06/27 03:01:16;;;;;;;4.00;3.25;;;12.00;99.90;;;;;;5032536;28;20483;-58
2021/06/27 03:03:42;;;;;;;5.07;3.78;;;12.00;99.90;;;;;;5032129;28;20085;-57
2021/06/27 03:06:09;;;;;;;5.70;3.58;;;12.00;99.90;;;;;;5033421;28;20052;-58
2021/06/27 03:08:35;;;;;;;5.72;4.00;;;12.00;99.90;;;;;;5033116;28;20459;-56
2021/06/27 03:11:01;;;;;;;5.43;3.63;;;12.00;99.90;;;;;;5032158;28;20048;-58
2021/06/27 03:13:27;;;;;;;4.72;3.20;;;12.00;99.90;;;;;;5031912;28;20452;-59
2021/06/27 03:15:53;;;;;;;5.65;3.78;;;12.10;99.90;;;;;;5033286;28;20051;-58
2021/06/27 03:18:19;;;;;;;6.65;4.18;;;12.10;99.90;;;;;;5031939;28;20033;-59
2021/06/27 03:20:44;;;;;;;6.60;4.10;;;12.10;99.90;;;;;;5033118;28;20028;-58
2021/06/27 03:23:11;;;;;;;6.40;4.43;;;12.20;99.90;;;;;;5031614;28;20022;-56
2021/06/27 03:25:37;;;;;;;4.10;3.35;;;12.20;99.90;;;;;;5033026;28;20071;-59
2021/06/27 03:28:03;;;;;;;6.25;3.80;;;12.20;99.90;;;;;;5033112;28;20018;-57
2021/06/27 03:30:29;;;;;;;5.60;3.38;;;12.30;99.90;;;;;;5032932;28;20021;-56
2021/06/27 03:32:54;;;;;;;10.60;3.75;;;12.40;99.90;;;;;;5031885;28;20025;-58
2021/06/27 03:35:20;;;;;;;4.80;3.50;;;12.50;99.90;;;;;;5032858;28;20027;-58
2021/06/27 03:37:59;;;;;;;6.35;3.92;;;12.50;99.90;;;;;;5032639;28;20056;-58
2021/06/27 03:40:24;;;;;;;5.38;3.13;;;12.60;99.90;;;;;;5032687;28;20022;-58
2021/06/27 03:42:51;;;;;;;5.80;3.20;;;13.00;99.90;;;;;;5032854;28;20412;-58
2021/06/27 03:45:17;;;;;;;3.90;3.10;;;14.10;99.90;;;;;;5032786;28;20017;-59
2021/06/27 03:47:44;;;;;;;4.45;3.55;;;15.30;99.90;;;;;;5031352;28;20068;-57
2021/06/27 03:50:10;;;;;;;4.00;2.85;;;16.40;99.90;;;;;;5032567;28;20026;-58
2021/06/27 03:52:36;;;;;;;3.92;2.97;;;17.40;99.90;;;;;;5032359;28;20038;-58
2021/06/27 03:55:05;;;;;;;5.38;3.55;;;18.30;99.90;;;;;;5032611;28;20026;-58
2021/06/27 03:57:30;;;;;;;4.03;2.85;;;19.20;97.50;;;;;;5031447;28;20362;-58
2021/06/27 03:59:56;;;;;;;2.63;2.42;;;20.00;94.10;;;;;;5031217;28;20049;-58
2021/06/27 04:02:21;;;;;;;4.88;2.40;;;20.80;91.10;;;;;;5031576;28;20025;-58
2021/06/27 04:04:47;;;;;;;4.80;2.70;;;21.60;88.40;;;;;;5031204;28;20529;-56
2021/06/27 04:07:12;;;;;;;2.75;2.55;;;22.30;84.90;;;;;;5032463;28;20220;-57
2021/06/27 04:09:38;;;;;;;3.00;2.38;;;22.80;81.20;;;;;;5032416;28;20034;-59
2021/06/27 04:12:04;;;;;;;2.92;2.63;;;23.50;79.00;;;;;;5032268;28;20416;-58
2021/06/27 04:14:29;;;;;;;2.30;2.10;;;24.20;76.70;;;;;;5032429;28;20506;-58
2021/06/27 04:16:55;;;;;;;2.45;2.20;;;24.70;74.80;;;;;;5032495;28;20038;-58
2021/06/27 04:19:20;;;;;;;2.53;2.20;;;25.20;73.10;;;;;;5031555;28;20450;-57
2021/06/27 04:21:46;;;;;;;2.38;2.17;;;25.60;71.90;;;;;;5032196;28;20033;-57
2021/06/27 04:24:11;;;;;;;2.53;2.17;;;26.00;70.60;;;;;;5030227;28;20061;-58
2021/06/27 04:26:37;;;;;;;2.47;2.15;;;26.50;69.50;;;;;;5051310;28;20029;-58
2021/06/27 04:29:02;;;;;;;2.65;2.45;;;26.90;68.20;;;;;;5052192;28;20372;-58
2021/06/27 04:31:28;;;;;;;2.97;2.40;;;27.40;67.10;;;;;;5052141;28;20029;-58
2021/06/27 04:33:53;;;;;;;2.38;2.17;;;27.70;66.30;;;;;;5051074;28;20132;-58
2021/06/27 04:36:19;;;;;;;2.50;2.30;;;28.20;65.10;;;;;;5040664;28;20056;-58
2021/06/27 04:38:45;;;;;;;2.97;2.35;;;28.70;63.90;;;;;;5032160;28;20033;-59
2021/06/27 04:41:11;;;;;;;2.90;2.40;;;29.10;62.90;;;;;;5032097;28;20112;-58
2021/06/27 04:43:36;;;;;;;2.45;2.25;;;29.40;61.80;;;;;;5032043;28;20480;-58
2021/06/27 04:46:02;;;;;;;5.22;2.80;;;29.90;61.20;;;;;;5032346;28;20448;-58
2021/06/27 04:48:28;;;;;;;2.45;2.25;;;30.40;60.00;;;;;;5031190;28;20060;-58
2021/06/27 04:50:53;;;;;;;2.55;2.35;;;30.80;58.90;;;;;;5029775;28;20040;-57
2021/06/27 04:53:19;;;;;;;2.63;2.38;;;31.20;58.10;;;;;;5051088;28;20025;-58
2021/06/27 04:55:45;;;;;;;2.55;2.35;;;31.60;57.10;;;;;;5051815;28;20021;-58
2021/06/27 04:58:11;;;;;;;3.30;2.42;;;31.90;56.40;;;;;;5051909;28;20048;-56
2021/06/27 05:00:37;;;;;;;2.35;2.15;;;32.20;55.40;;;;;;5051701;28;20132;-56
2021/06/27 05:03:04;;;;;;;2.28;2.08;;;32.40;54.50;;;;;;5050904;28;20063;-58
2021/06/27 05:05:30;;;;;;;2.55;2.25;;;32.70;53.90;;;;;;5051856;28;20048;-58
2021/06/27 05:07:56;;;;;;;2.45;2.25;;;33.00;52.80;;;;;;5051786;28;20060;-58
2021/06/27 05:10:21;;;;;;;2.30;2.10;;;33.30;51.60;;;;;;5051878;28;20107;-57
2021/06/27 05:12:47;;;;;;;2.08;1.90;;;33.30;50.50;;;;;;5051753;28;20026;-58
2021/06/27 05:15:13;;;;;;;1.88;1.67;;;33.30;50.10;;;;;;5051880;28;20120;-58
2021/06/27 05:17:38;;;;;;;1.83;1.73;;;33.60;49.30;;;;;;5049476;28;20029;-58
2021/06/27 05:20:05;;;;;;;3.28;2.10;;;33.90;48.60;;;;;;5051459;28;20059;-58
2021/06/27 05:22:30;;;;;;;2.10;1.90;;;34.40;47.40;;;;;;5051228;28;20017;-56
2021/06/27 05:24:56;;;;;;;2.35;2.15;;;34.80;46.60;;;;;;5053296;28;20421;-58
2021/06/27 05:27:21;;;;;;;3.28;1.70;;;35.30;45.50;;;;;;5055050;28;20437;-58
2021/06/27 05:29:46;;;;;;;1.80;1.70;;;35.70;44.90;;;;;;5054892;28;20031;-58
2021/06/27 05:32:12;;;;;;;1.85;1.63;;;35.80;44.10;;;;;;5054110;28;20492;-58
2021/06/27 05:34:37;;;;;;;1.95;1.73;;;36.10;43.80;;;;;;5054898;28;20569;-58
2021/06/27 05:37:03;;;;;;;1.77;1.67;;;36.30;43.40;;;;;;5037869;28;20034;-58
2021/06/27 05:39:29;;;;;;;2.00;1.80;;;36.70;42.40;;;;;;5034862;28;20041;-58
2021/06/27 05:41:54;;;;;;;1.55;1.45;;;36.70;42.00;;;;;;5034848;28;20041;-58
2021/06/27 05:44:20;;;;;;;1.50;1.40;;;36.70;41.70;;;;;;5035045;28;20022;-58
2021/06/27 05:46:46;;;;;;;1.52;1.42;;;36.70;41.10;;;;;;5035012;28;20030;-58
2021/06/27 05:49:12;;;;;;;2.17;1.70;;;36.90;41.10;;;;;;5031340;28;20017;-58
2021/06/27 05:51:38;;;;;;;1.45;1.35;;;37.10;40.90;;;;;;5034227;28;20030;-59
2021/06/27 05:54:05;;;;;;;2.03;1.42;;;37.10;40.50;;;;;;5034559;28;20035;-58
2021/06/27 05:56:30;;;;;;;1.58;1.48;;;37.30;40.80;;;;;;5034836;28;20033;-58
2021/06/27 05:58:56;;;;;;;1.65;1.52;;;37.40;39.90;;;;;;5034447;28;20034;-59
2021/06/27 06:01:21;;;;;;;1.77;1.50;;;37.80;39.60;;;;;;5034718;28;20037;-59
2021/06/27 06:03:47;;;;;;;2.33;1.73;;;37.90;39.20;;;;;;5033247;28;20026;-59
2021/06/27 06:06:13;;;;;;;1.55;1.45;;;38.20;38.80;;;;;;5034615;28;20083;-58
2021/06/27 06:08:41;;;;;;;1.55;1.45;;;38.40;38.30;;;;;;5034282;28;20078;-59
2021/06/27 06:11:11;;;;;;;2.42;1.38;;;38.40;37.90;;;;;;5034401;28;20026;-59
2021/06/27 06:13:37;;;;;;;1.60;1.50;;;38.30;37.50;;;;;;5034473;28;20076;-58
2021/06/27 06:16:04;;;;;;;2.45;1.60;;;38.20;37.80;;;;;;5034443;28;20390;-59
2021/06/27 06:18:30;;;;;;;1.52;1.40;;;38.20;37.20;;;;;;5033326;28;20033;-59
2021/06/27 06:20:55;;;;;;;3.72;1.65;;;38.10;37.60;;;;;;5034261;28;20025;-58
2021/06/27 06:23:21;;;;;;;1.58;1.48;;;38.30;37.50;;;;;;5034178;28;20017;-59
2021/06/27 06:25:47;;;;;;;2.25;1.45;;;38.50;37.20;;;;;;5034240;28;20025;-58
2021/06/27 06:28:12;;;;;;;1.38;1.20;;;38.80;37.00;;;;;;5034193;28;20018;-59
2021/06/27 06:30:38;;;;;;;1.73;1.33;;;39.40;36.70;;;;;;5035446;28;20037;-59
2021/06/27 06:33:04;;;;;;;1.90;1.75;;;39.70;36.30;;;;;;5033023;28;20488;-59
2021/06/27 06:35:29;;;;;;;1.60;1.50;;;39.30;35.60;;;;;;5033796;28;20017;-59
2021/06/27 06:37:55;;;;;;;1.60;1.50;;;39.00;36.00;;;;;;5034003;28;20029;-59
2021/06/27 06:40:20;;;;;;;1.30;1.20;;;39.00;36.00;;;;;;5033725;28;20481;-59
2021/06/27 06:42:46;;;;;;;1.42;1.33;;;39.40;36.00;;;;;;5033821;28;20029;-59
2021/06/27 06:45:11;;;;;;;1.67;1.58;;;39.70;35.60;;;;;;5033878;28;20049;-59
2021/06/27 06:47:37;;;;;;;2.53;1.40;;;39.90;35.40;;;;;;5032765;28;20040;-59
2021/06/27 06:50:04;;;;;;;2.45;1.73;;;40.20;35.20;;;;;;5033604;28;20021;-59
2021/06/27 06:52:30;;;;;;;1.65;1.48;;;40.20;34.70;;;;;;5033321;28;20048;-59
2021/06/27 06:54:55;;;;;;;1.40;1.30;;;40.30;34.90;;;;;;5033551;28;20033;-59
2021/06/27 06:57:21;;;;;;;1.23;1.13;;;40.40;34.60;;;;;;5033533;28;20403;-59
2021/06/27 06:59:46;;;;;;;1.60;1.40;;;41.00;34.40;;;;;;5033312;28;20056;-59
2021/06/27 07:02:12;;;;;;;1.50;1.40;;;41.20;33.70;;;;;;5032490;28;20029;-59
2021/06/27 07:04:37;;;;;;;1.58;1.48;;;41.80;33.60;;;;;;5033368;28;20017;-59
2021/06/27 07:07:03;;;;;;;1.40;1.30;;;42.40;33.50;;;;;;5033456;28;20143;-59
2021/06/27 07:09:28;;;;;;;1.45;1.33;;;42.60;33.20;;;;;;5033396;28;20021;-59
2021/06/27 07:11:54;;;;;;;1.52;1.42;;;42.80;33.00;;;;;;5033379;28;20025;-59
2021/06/27 07:14:19;;;;;;;1.10;1.00;;;43.10;32.90;;;;;;5033151;28;20036;-59
2021/06/27 07:16:45;;;;;;;1.25;1.02;;;43.40;32.80;;;;;;5033469;28;20043;-59
2021/06/27 07:19:11;;;;;;;1.20;1.10;;;43.50;32.40;;;;;;5032151;28;20041;-59
2021/06/27 07:21:39;;;;;;;1.58;1.42;;;43.70;32.20;;;;;;5033299;28;20037;-59
2021/06/27 07:24:04;;;;;;;1.23;1.13;;;43.80;32.00;;;;;;5031719;28;20108;-60
2021/06/27 07:26:30;;;;;;;1.48;1.38;;;43.40;32.00;;;;;;5033226;28;20109;-59
2021/06/27 07:28:55;;;;;;;1.50;1.40;;;43.40;31.60;;;;;;5032827;28;20485;-59
2021/06/27 07:31:21;;;;;;;1.30;1.20;;;43.30;31.80;;;;;;5033046;28;20460;-59
2021/06/27 07:33:46;;;;;;;1.48;1.38;;;43.40;31.70;;;;;;5031914;28;20025;-59
2021/06/27 07:36:12;;;;;;;1.58;1.48;;;43.30;31.50;;;;;;5032866;28;20033;-60
2021/06/27 07:38:38;;;;;;;1.60;1.50;;;43.20;31.40;;;;;;5032953;28;20032;-59
2021/06/27 07:41:03;;;;;;;1.60;1.50;;;42.90;31.10;;;;;;5041529;28;20025;-59
2021/06/27 07:43:31;;;;;;;2.25;1.20;;;42.40;31.50;;;;;;5052755;28;20025;-59
2021/06/27 07:45:57;;;;;;;1.33;1.23;;;42.60;31.60;;;;;;5052433;28;20025;-59
2021/06/27 07:48:22;;;;;;;1.40;1.30;;;43.30;31.20;;;;;;5051277;28;20493;-57
2021/06/27 07:50:48;;;;;;;1.70;1.50;;;43.80;30.30;;;;;;5052488;28;20119;-59
2021/06/27 07:53:14;;;;;;;1.90;1.42;;;44.10;30.60;;;;;;5052582;28;20112;-58
2021/06/27 07:55:39;;;;;;;1.98;1.27;;;44.70;30.40;;;;;;5052534;28;20029;-59
2021/06/27 07:58:05;;;;;;;1.80;1.30;;;45.10;30.20;;;;;;5052496;28;20032;-59
2021/06/27 08:00:30;;;;;;;1.33;1.23;;;45.20;30.00;;;;;;5052031;28;20045;-59
2021/06/27 08:02:57;;;;;;;1.23;1.05;;;45.40;30.10;;;;;;5051337;28;20473;-59
2021/06/27 08:05:23;;;;;;;1.58;1.48;;;45.70;30.00;;;;;;5052362;28;20017;-59
2021/06/27 08:07:48;;;;;;;1.33;1.23;;;46.00;29.80;;;;;;5052462;28;20025;-59
2021/06/27 08:10:14;;;;;;;1.40;1.30;;;46.30;29.70;;;;;;5052312;28;20035;-59
2021/06/27 08:12:41;;;;;;;1.30;1.20;;;46.60;29.60;;;;;;5052440;28;20065;-59
2021/06/27 08:15:09;;;;;;;1.60;1.50;;;46.70;29.50;;;;;;5052050;28;20024;-59
2021/06/27 08:17:35;;;;;;;1.40;1.30;;;46.70;29.30;;;;;;5051406;28;20017;-59
2021/06/27 08:20:01;;;;;;;1.50;1.40;;;46.70;29.00;;;;;;5052116;28;20482;-59
2021/06/27 08:22:26;;;;;;;2.63;1.30;;;45.80;29.40;;;;;;5052397;28;20108;-59
2021/06/27 08:24:52;;;;;;;1.10;1.10;;;45.60;29.50;;;;;;5052221;28;20082;-59
2021/06/27 08:27:17;;;;;;;1.08;1.02;;;46.00;29.50;;;;;;5052238;28;20052;-58
2021/06/27 08:29:43;;;;;;;1.77;1.40;;;46.30;29.40;;;;;;5051991;28;20455;-58
2021/06/27 08:32:08;;;;;;;1.17;1.00;;;46.20;29.10;;;;;;5050924;28;20051;-58
2021/06/27 08:34:34;;;;;;;1.40;1.30;;;46.10;29.20;;;;;;5052181;28;20029;-59
2021/06/27 08:37:00;;;;;;;1.20;1.10;;;46.30;29.20;;;;;;5035286;28;20021;-57
2021/06/27 08:39:25;;;;;;;1.58;1.10;;;46.30;29.20;;;;;;5033500;28;20049;-59
2021/06/27 08:41:51;;;;;;;3.53;1.60;;;46.60;29.20;;;;;;5034640;28;20032;-59
2021/06/27 08:44:16;;;;;;;1.13;1.10;;;46.70;29.10;;;;;;5031900;28;20034;-59
2021/06/27 08:46:44;;;;;;;1.25;1.25;;;46.80;29.10;;;;;;5032084;28;20377;-59
2021/06/27 08:49:11;;;;;;;1.10;1.10;;;46.90;29.00;;;;;;5031286;28;20047;-57
2021/06/27 08:51:39;;;;;;;1.42;1.30;;;47.00;29.00;;;;;;5031957;28;20033;-59
2021/06/27 08:54:07;;;;;;;1.33;1.23;;;47.00;28.90;;;;;;5032105;28;20385;-59
2021/06/27 08:56:33;;;;;;;1.17;1.08;;;46.90;28.90;;;;;;5032083;28;20017;-59
2021/06/27 08:58:59;;;;;;;1.40;1.30;;;46.10;28.90;;;;;;5032609;28;20512;-59
2021/06/27 09:01:25;;;;;;;1.42;1.33;;;44.40;29.30;;;;;;5035182;28;20039;-58
2021/06/27 09:03:52;;;;;;;1.23;1.15;;;42.10;29.80;;;;;;5034876;28;20025;-58
2021/06/27 09:06:25;;;;;;;1.98;1.50;;;41.20;30.50;;;;;;5035447;28;20534;-58
2021/06/27 09:09:14;;;;;;;1.60;1.30;;;41.70;30.70;;;;;;5035782;28;20025;-58
2021/06/27 09:11:55;;;;;;;1.23;1.13;;;42.30;30.50;;;;;;5035508;28;20057;-59
2021/06/27 09:14:29;;;;;;;1.33;1.20;;;42.30;30.30;;;;;;5035464;28;20112;-59
2021/06/27 09:17:11;;;;;;;1.35;1.25;;;40.50;30.50;;;;;;5035467;28;20045;-57
2021/06/27 09:19:55;;;;;;;2.95;1.60;;;40.80;31.00;;;;;;5035201;28;20049;-58
2021/06/27 09:22:22;;;;;;;1.50;1.40;;;41.60;31.40;;;;;;5035145;28;20076;-59
2021/06/27 09:24:48;;;;;;;1.33;1.23;;;41.70;30.80;;;;;;5035292;28;20017;-59
2021/06/27 09:27:14;;;;;;;1.70;1.60;;;41.60;31.10;;;;;;5035231;28;20484;-58
2021/06/27 09:29:40;;;;;;;2.75;1.40;;;41.70;31.20;;;;;;5035154;28;20025;-58
2021/06/27 09:32:17;;;;;;;2.55;1.58;;;41.70;31.30;;;;;;5034358;28;20389;-58
2021/06/27 09:34:43;;;;;;;1.65;1.40;;;41.90;31.00;;;;;;5034625;28;20082;-59
2021/06/27 09:37:09;;;;;;;1.67;1.58;;;41.80;30.90;;;;;;5035027;28;20377;-58
2021/06/27 09:39:35;;;;;;;2.72;1.38;;;41.70;30.90;;;;;;5035181;28;20096;-58
2021/06/27 09:42:04;;;;;;;1.60;1.50;;;41.90;31.00;;;;;;5034806;28;20061;-57
2021/06/27 09:44:30;;;;;;;1.30;1.20;;;41.70;30.40;;;;;;5035049;28;20021;-58
2021/06/27 09:46:55;;;;;;;1.50;1.35;;;41.40;30.60;;;;;;5034774;28;20032;-56
2021/06/27 09:49:32;;;;;;;1.50;1.40;;;41.20;30.80;;;;;;5035106;28;20056;-58
2021/06/27 09:52:11;;;;;;;3.63;1.67;;;40.70;31.30;;;;;;5034669;28;20021;-55
2021/06/27 09:54:37;;;;;;;2.03;1.35;;;40.30;31.70;;;;;;5034816;28;20486;-58
2021/06/27 09:57:03;;;;;;;1.42;1.33;;;40.20;31.70;;;;;;5033436;28;20037;-58
2021/06/27 09:59:34;;;;;;;2.55;1.50;;;39.50;32.00;;;;;;5034490;28;20076;-58
2021/06/27 10:01:59;;;;;;;1.67;1.58;;;38.30;32.50;;;;;;5034399;28;20037;-56
2021/06/27 10:04:31;;;;;;;1.63;1.52;;;36.90;33.40;;;;;;5033925;28;20033;-57
2021/06/27 10:06:58;;;;;;;1.63;1.35;;;36.20;34.70;;;;;;5034509;28;20030;-58
2021/06/27 10:09:29;;;;;;;1.70;1.42;;;35.50;34.70;;;;;;5034288;28;20128;-57
2021/06/27 10:12:04;;;;;;;2.90;1.50;;;35.00;35.50;;;;;;5034500;28;20420;-58
2021/06/27 10:14:58;;;;;;;1.50;1.40;;;34.80;35.40;;;;;;5034574;28;20029;-58
2021/06/27 10:17:25;;;;;;;1.67;1.55;;;34.50;35.60;;;;;;5033320;28;20223;-58
2021/06/27 10:19:52;;;;;;;1.88;1.52;;;33.70;35.80;;;;;;5034534;28;20043;-58
2021/06/27 10:22:21;;;;;;;1.60;1.50;;;33.10;36.90;;;;;;5032902;28;20068;-57
2021/06/27 10:24:46;;;;;;;1.90;1.80;;;32.60;37.70;;;;;;5034193;28;20029;-58
2021/06/27 10:27:15;;;;;;;1.98;1.73;;;32.10;38.50;;;;;;5034043;28;20044;-58
2021/06/27 10:29:46;;;;;;;2.15;1.73;;;31.70;38.70;;;;;;5034244;28;20369;-58
2021/06/27 10:32:12;;;;;;;1.90;1.70;;;31.50;39.60;;;;;;5031782;28;20053;-57
2021/06/27 10:34:38;;;;;;;1.67;1.58;;;31.30;39.10;;;;;;5034237;28;20060;-57
2021/06/27 10:37:21;;;;;;;1.38;1.27;;;31.30;39.10;;;;;;5033757;28;20021;-58
2021/06/27 10:40:01;;;;;;;2.00;1.60;;;31.30;39.60;;;;;;5034232;28;20039;-58
2021/06/27 10:42:54;;;;;;;1.40;1.30;;;31.20;39.10;;;;;;5033720;28;20029;-58
2021/06/27 10:45:30;;;;;;;2.25;1.65;;;31.10;40.10;;;;;;5032488;28;20056;-58
2021/06/27 10:47:56;;;;;;;1.80;1.70;;;31.20;39.30;;;;;;5032846;28;20045;-58
2021/06/27 10:50:22;;;;;;;2.17;1.88;;;31.00;40.00;;;;;;5033549;28;20060;-55
2021/06/27 10:52:53;;;;;;;1.67;1.58;;;30.90;39.70;;;;;;5033703;28;20453;-58
2021/06/27 10:55:19;;;;;;;2.50;1.55;;;30.80;40.40;;;;;;5033462;28;20029;-58
2021/06/27 10:58:15;;;;;;;2.20;2.00;;;30.50;40.40;;;;;;5033777;28;20022;-59
2021/06/27 11:01:10;;;;;;;3.10;1.98;;;30.30;40.80;;;;;;5028666;28;20053;-58
2021/06/27 11:03:44;;;;;;;1.80;1.70;;;29.90;41.10;;;;;;5031900;28;20088;-57
2021/06/27 11:06:18;;;;;;;2.88;1.80;;;29.70;41.10;;;;;;5033153;28;20028;-58
2021/06/27 11:08:48;;;;;;;2.28;1.75;;;29.60;41.50;;;;;;5033550;28;20469;-59
2021/06/27 11:11:22;;;;;;;1.70;1.60;;;29.60;41.10;;;;;;5033254;28;20029;-58
2021/06/27 11:14:15;;;;;;;1.95;1.77;;;29.70;41.00;;;;;;5033518;28;20084;-58
2021/06/27 11:16:59;;;;;;;2.08;1.83;;;29.80;40.70;;;;;;5033101;28;20025;-59
2021/06/27 11:19:27;;;;;;;1.73;1.48;;;30.00;41.00;;;;;;5032559;28;20075;-58
2021/06/27 11:22:19;;;;;;;1.88;1.70;;;30.20;40.60;;;;;;5032389;28;20021;-58
2021/06/27 11:24:46;;;;;;;1.58;1.48;;;30.50;41.20;;;;;;5033242;28;20047;-58
2021/06/27 11:27:33;;;;;;;2.22;2.03;;;30.90;40.20;;;;;;5032762;28;20037;-58
2021/06/27 11:30:00;;;;;;;3.38;2.05;;;31.00;40.50;;;;;;5031722;28;20361;-58
2021/06/27 11:32:25;;;;;;;2.10;1.90;;;30.60;40.40;;;;;;5031930;28;20075;-58
2021/06/27 11:34:53;;;;;;;2.13;1.92;;;30.20;40.90;;;;;;5037757;28;20108;-58
2021/06/27 11:37:18;;;;;;;1.90;1.63;;;29.90;41.50;;;;;;5033298;28;20058;-57
2021/06/27 11:39:48;;;;;;;2.33;1.52;;;29.50;41.60;;;;;;5032388;28;20029;-58
2021/06/27 11:42:31;;;;;;;2.67;2.00;;;29.40;41.60;;;;;;5049828;28;20032;-57
2021/06/27 11:45:09;;;;;;;1.83;1.60;;;29.50;41.80;;;;;;5051971;28;20090;-54
2021/06/27 11:47:41;;;;;;;2.03;1.45;;;29.70;41.80;;;;;;5035230;28;20029;-58
2021/06/27 11:50:24;;;;;;;1.67;1.50;;;29.70;41.40;;;;;;5032585;28;20036;-58
2021/06/27 11:52:52;;;;;;;1.50;1.40;;;29.70;40.90;;;;;;5032599;28;20481;-57
2021/06/27 11:55:23;;;;;;;2.17;1.25;;;29.70;41.20;;;;;;5031316;28;20408;-58
2021/06/27 11:57:50;;;;;;;1.70;1.42;;;29.60;41.30;;;;;;5032703;28;20033;-57
2021/06/27 12:00:16;;;;;;;1.80;1.67;;;29.60;41.10;;;;;;5032439;28;20133;-58
2021/06/27 12:02:42;;;;;;;1.83;1.58;;;29.40;41.60;;;;;;5031411;28;20100;-56
2021/06/27 12:05:10;;;;;;;1.60;1.48;;;29.20;42.20;;;;;;5032473;28;20105;-58
2021/06/27 12:07:41;;;;;;;2.10;1.90;;;28.90;42.60;;;;;;5032358;28;20033;-58
2021/06/27 12:10:13;;;;;;;2.10;1.90;;;28.80;42.60;;;;;;5031394;28;20029;-59
2021/06/27 12:12:59;;;;;;;2.28;1.60;;;28.90;43.00;;;;;;5032410;28;20065;-57
2021/06/27 12:15:27;;;;;;;1.95;1.63;;;28.80;42.40;;;;;;5032255;28;20022;-56
2021/06/27 12:18:14;;;;;;;2.10;1.88;;;28.90;42.30;;;;;;5031480;28;20031;-58
2021/06/27 12:20:45;;;;;;;7.80;2.00;;;29.00;42.60;;;;;;5032247;28;20032;-58
2021/06/27 12:23:13;;;;;;;2.20;1.70;;;28.90;42.40;;;;;;5032410;28;20025;-58
2021/06/27 12:25:42;;;;;;;3.15;1.92;;;28.90;42.70;;;;;;5032006;28;20029;-58
2021/06/27 12:28:15;;;;;;;1.70;1.60;;;29.00;42.60;;;;;;5031247;28;20037;-58
2021/06/27 12:30:53;;;;;;;2.00;1.50;;;29.20;42.40;;;;;;5032294;28;20036;-57
2021/06/27 12:33:30;;;;;;;2.88;1.60;;;29.30;42.20;;;;;;5032744;28;20022;-58
2021/06/27 12:35:57;;;;;;;2.10;1.90;;;29.30;42.10;;;;;;5035979;28;20484;-58
2021/06/27 12:38:25;;;;;;;1.90;1.73;;;29.10;42.40;;;;;;5036096;28;20424;-58
2021/06/27 12:40:53;;;;;;;1.80;1.70;;;28.90;42.90;;;;;;5036275;28;20037;-58
2021/06/27 12:43:31;;;;;;;2.08;1.88;;;28.80;43.30;;;;;;5036038;28;20660;-57
2021/06/27 12:46:14;;;;;;;3.13;2.15;;;28.60;43.40;;;;;;5036096;28;20072;-58
2021/06/27 12:48:43;;;;;;;1.80;1.67;;;28.40;43.90;;;;;;5035008;28;20064;-58
2021/06/27 12:51:32;;;;;;;1.70;1.60;;;28.30;43.60;;;;;;5034555;28;20021;-55